createdAt,value
2023-02-15T00:01:03.501Z,-0.05
2023-02-15T00:11:04.797Z,-0.05
2023-02-15T00:21:03.589Z,-0.13
2023-02-15T00:31:03.820Z,-0.21
2023-02-15T00:41:03.739Z,-0.32
2023-02-15T00:51:03.887Z,-0.46
2023-02-15T01:01:04.265Z,-0.58
2023-02-15T01:11:03.988Z,-0.57
2023-02-15T01:21:03.999Z,-0.66
2023-02-15T01:31:04.082Z,-1.00
2023-02-15T01:41:04.002Z,-1.21
2023-02-15T01:51:04.287Z,-1.37
2023-02-15T02:01:04.020Z,-1.20
2023-02-15T02:11:03.975Z,-1.08
2023-02-15T02:21:04.005Z,-0.68
2023-02-15T02:31:04.165Z,-0.41
2023-02-15T02:41:04.058Z,-0.43
2023-02-15T02:51:04.062Z,-0.57
2023-02-15T03:01:04.076Z,-0.85
2023-02-15T03:11:04.111Z,-0.59
2023-02-15T03:21:04.118Z,-0.63
2023-02-15T03:31:04.287Z,-0.61
2023-02-15T03:41:04.219Z,-0.67
2023-02-15T03:51:05.254Z,-0.85
2023-02-15T04:01:04.309Z,-1.34
2023-02-15T04:11:04.237Z,-1.69
2023-02-15T04:21:04.251Z,-1.78
2023-02-15T04:31:04.299Z,-1.70
2023-02-15T04:41:04.207Z,-1.69
2023-02-15T04:51:04.164Z,-1.88
2023-02-15T05:01:04.154Z,-2.06
2023-02-15T05:11:04.026Z,-2.11
2023-02-15T05:21:03.945Z,-2.09
2023-02-15T05:31:04.248Z,-2.19
2023-02-15T05:41:03.861Z,-2.10
2023-02-15T05:51:03.781Z,-1.78
2023-02-15T06:01:03.752Z,-1.76
2023-02-15T06:11:03.713Z,-1.90
2023-02-15T06:21:05.010Z,-1.54
2023-02-15T06:31:03.717Z,-1.57
2023-02-15T06:41:03.662Z,-1.50
2023-02-15T06:51:03.572Z,-1.02
2023-02-15T07:01:03.543Z,-0.83
2023-02-15T07:11:03.534Z,-0.36
2023-02-15T07:21:03.606Z,-0.19
2023-02-15T07:31:03.816Z,0.12
2023-02-15T07:41:03.778Z,0.37
2023-02-15T07:51:03.910Z,0.86
2023-02-15T08:01:04.061Z,1.45
2023-02-15T08:11:04.144Z,2.92
2023-02-15T08:21:04.395Z,4.07
2023-02-15T08:31:04.972Z,4.60
2023-02-15T08:41:05.183Z,5.21
2023-02-15T08:51:05.755Z,5.98
2023-02-15T09:01:06.417Z,7.33
2023-02-15T09:11:07.227Z,8.96
2023-02-15T09:21:07.831Z,8.88
2023-02-15T09:31:08.766Z,7.67
2023-02-15T09:41:10.779Z,9.05
2023-02-15T09:51:10.502Z,9.27
2023-02-15T10:01:11.051Z,9.75
2023-02-15T10:11:11.712Z,9.46
2023-02-15T10:21:12.368Z,9.20
2023-02-15T10:31:13.269Z,9.05
2023-02-15T10:41:13.774Z,8.88
2023-02-15T10:51:14.485Z,8.72
2023-02-15T11:01:15.143Z,8.87
2023-02-15T11:11:15.793Z,8.46
2023-02-15T11:21:16.468Z,8.50
2023-02-15T11:31:17.326Z,8.19
2023-02-15T11:41:17.869Z,8.17
2023-02-15T11:51:18.530Z,8.36
2023-02-15T12:01:19.119Z,8.23
2023-02-15T12:11:19.763Z,8.31
2023-02-15T12:21:20.346Z,8.26
2023-02-15T12:31:21.219Z,8.40
2023-02-15T12:41:21.638Z,8.38
2023-02-15T12:51:22.229Z,8.76
2023-02-15T13:01:23.074Z,8.67
2023-02-15T13:11:23.587Z,8.71
2023-02-15T13:21:24.217Z,8.81
2023-02-15T13:31:25.040Z,8.90
2023-02-15T13:41:25.523Z,9.10
2023-02-15T13:51:26.204Z,9.07
2023-02-15T14:01:26.935Z,9.06
2023-02-15T14:11:27.655Z,9.13
2023-02-15T14:21:28.342Z,9.27
2023-02-15T14:31:29.325Z,9.15
2023-02-15T14:41:29.996Z,9.12
2023-02-15T14:51:30.991Z,9.04
2023-02-15T15:01:31.338Z,8.91
2023-02-15T15:11:43.065Z,8.67
2023-02-15T15:21:32.699Z,8.60
2023-02-15T15:31:33.629Z,8.39
2023-02-15T15:41:34.152Z,8.20
2023-02-15T16:01:35.459Z,7.84
2023-02-15T16:11:36.204Z,7.68
2023-02-15T16:21:36.692Z,7.56
2023-02-15T16:31:37.436Z,7.54
2023-02-15T16:41:38.264Z,7.42
2023-02-15T16:51:40.530Z,7.16
2023-02-15T17:01:39.264Z,7.10
2023-02-15T17:11:39.710Z,6.81
2023-02-15T17:21:40.289Z,6.61
2023-02-15T17:41:41.208Z,6.23
2023-02-15T17:51:41.990Z,6.04
2023-02-15T18:01:42.277Z,5.74
2023-02-15T18:11:42.805Z,5.30
2023-02-15T18:21:43.549Z,5.00
2023-02-15T18:31:44.516Z,4.65
2023-02-15T18:41:44.382Z,4.30
2023-02-15T18:51:44.827Z,4.34
2023-02-15T19:01:47.226Z,3.92
2023-02-15T19:11:45.467Z,3.53
2023-02-15T19:21:47.774Z,3.17
2023-02-15T19:31:46.708Z,2.99
2023-02-15T19:41:46.974Z,2.82
2023-02-15T19:51:47.200Z,2.74
2023-02-15T20:01:46.908Z,2.60
2023-02-15T20:11:49.596Z,2.55
2023-02-15T20:21:47.388Z,2.35
2023-02-15T20:31:47.827Z,2.05
2023-02-15T20:41:51.684Z,2.20
2023-02-15T20:51:51.322Z,1.96
2023-02-15T21:01:48.407Z,1.42
2023-02-15T21:21:48.642Z,1.42
2023-02-15T21:31:50.937Z,1.26
2023-02-15T21:41:48.688Z,1.34
2023-02-15T21:51:48.825Z,1.12
2023-02-15T22:01:49.008Z,1.18
2023-02-15T22:11:49.106Z,0.73
2023-02-15T22:21:49.234Z,0.55
2023-02-15T22:31:49.541Z,0.53
2023-02-15T22:41:49.548Z,0.54
2023-02-15T22:51:49.717Z,0.27
2023-02-15T23:01:50.046Z,-0.04
2023-02-15T23:11:50.005Z,-0.07
2023-02-15T23:21:50.072Z,-0.11
2023-02-15T23:31:50.300Z,-0.47
2023-02-15T23:41:50.216Z,-0.48
2023-02-15T23:51:50.303Z,-0.46
